Terminal Aerodrome Forecast
Issued by NWS Tuscon, AZ

Home | Current Version | Previous Version | Text Only | Print | Product List | Glossary On
Versions: 1 2 3 4 5 6 7 8 9 10 11 12 13 14 15 16
000
FTUS45 KTWC 230533
TAFTUS
TAF
KTUS 230533Z 2306/2406 07006KT P6SM SCT140 BKN200
     FM230800 14006KT P6SM FEW150 SCT200
     FM231900 29007KT P6SM SCT100
     FM232200 32007KT P6SM SCT090 BKN120=

USA.gov is the U.S. government's official web portal to all federal, state and local government web resources and services.